sensor_id;sensor_type;location;lat;lon;timestamp;P1;durP1;ratioP1;P2;durP2;ratioP2
17052;SDS011;8643;48.824;11.422;2023-05-10T00:01:02;13.80;;;10.52;;
17052;SDS011;8643;48.824;11.422;2023-05-10T00:03:31;19.45;;;13.00;;
17052;SDS011;8643;48.824;11.422;2023-05-10T00:06:02;18.02;;;12.85;;
17052;SDS011;8643;48.824;11.422;2023-05-10T00:08:30;19.92;;;12.85;;
17052;SDS011;8643;48.824;11.422;2023-05-10T00:10:59;19.40;;;13.10;;
17052;SDS011;8643;48.824;11.422;2023-05-10T00:13:28;20.92;;;13.43;;
17052;SDS011;8643;48.824;11.422;2023-05-10T00:15:58;21.63;;;15.10;;
17052;SDS011;8643;48.824;11.422;2023-05-10T00:18:27;20.58;;;14.63;;
17052;SDS011;8643;48.824;11.422;2023-05-10T00:20:55;24.13;;;16.58;;
17052;SDS011;8643;48.824;11.422;2023-05-10T00:23:24;26.17;;;16.85;;
17052;SDS011;8643;48.824;11.422;2023-05-10T00:25:52;25.35;;;17.00;;
17052;SDS011;8643;48.824;11.422;2023-05-10T00:28:21;25.85;;;16.02;;
17052;SDS011;8643;48.824;11.422;2023-05-10T00:30:50;26.60;;;16.17;;
17052;SDS011;8643;48.824;11.422;2023-05-10T00:33:20;23.10;;;15.05;;
17052;SDS011;8643;48.824;11.422;2023-05-10T00:35:48;26.42;;;14.90;;
17052;SDS011;8643;48.824;11.422;2023-05-10T00:38:17;24.55;;;15.07;;
17052;SDS011;8643;48.824;11.422;2023-05-10T00:40:46;21.05;;;12.52;;
17052;SDS011;8643;48.824;11.422;2023-05-10T00:43:24;20.30;;;11.93;;
17052;SDS011;8643;48.824;11.422;2023-05-10T00:45:53;14.93;;;10.07;;
17052;SDS011;8643;48.824;11.422;2023-05-10T00:48:23;12.75;;;9.10;;
17052;SDS011;8643;48.824;11.422;2023-05-10T00:50:52;15.13;;;10.50;;
17052;SDS011;8643;48.824;11.422;2023-05-10T00:53:21;13.32;;;8.85;;
17052;SDS011;8643;48.824;11.422;2023-05-10T00:55:51;9.88;;;6.72;;
17052;SDS011;8643;48.824;11.422;2023-05-10T00:58:19;10.80;;;7.00;;
17052;SDS011;8643;48.824;11.422;2023-05-10T01:00:50;8.68;;;6.03;;
17052;SDS011;8643;48.824;11.422;2023-05-10T01:03:19;9.75;;;6.50;;
17052;SDS011;8643;48.824;11.422;2023-05-10T01:05:49;10.18;;;5.60;;
17052;SDS011;8643;48.824;11.422;2023-05-10T01:08:17;7.63;;;5.43;;
17052;SDS011;8643;48.824;11.422;2023-05-10T01:10:47;8.00;;;5.55;;
17052;SDS011;8643;48.824;11.422;2023-05-10T01:13:17;9.95;;;5.82;;
17052;SDS011;8643;48.824;11.422;2023-05-10T01:15:57;9.32;;;5.43;;
17052;SDS011;8643;48.824;11.422;2023-05-10T01:18:28;7.47;;;5.50;;
17052;SDS011;8643;48.824;11.422;2023-05-10T01:21:01;6.93;;;5.13;;
17052;SDS011;8643;48.824;11.422;2023-05-10T01:23:45;6.47;;;4.88;;
17052;SDS011;8643;48.824;11.422;2023-05-10T01:30:05;5.53;;;4.20;;
17052;SDS011;8643;48.824;11.422;2023-05-10T01:33:06;5.65;;;3.75;;
17052;SDS011;8643;48.824;11.422;2023-05-10T01:35:41;4.63;;;3.50;;
17052;SDS011;8643;48.824;11.422;2023-05-10T01:38:17;4.82;;;3.90;;
17052;SDS011;8643;48.824;11.422;2023-05-10T01:40:56;7.15;;;4.00;;
17052;SDS011;8643;48.824;11.422;2023-05-10T01:43:42;7.35;;;4.13;;
17052;SDS011;8643;48.824;11.422;2023-05-10T01:46:23;5.40;;;3.80;;
17052;SDS011;8643;48.824;11.422;2023-05-10T01:48:57;4.30;;;3.55;;
17052;SDS011;8643;48.824;11.422;2023-05-10T01:51:29;5.55;;;3.97;;
17052;SDS011;8643;48.824;11.422;2023-05-10T01:54:06;7.25;;;4.35;;
17052;SDS011;8643;48.824;11.422;2023-05-10T01:56:40;5.63;;;3.72;;
17052;SDS011;8643;48.824;11.422;2023-05-10T01:59:13;6.05;;;3.80;;
17052;SDS011;8643;48.824;11.422;2023-05-10T02:01:45;6.85;;;3.70;;
17052;SDS011;8643;48.824;11.422;2023-05-10T02:04:18;6.32;;;4.00;;
17052;SDS011;8643;48.824;11.422;2023-05-10T02:06:51;5.00;;;3.78;;
17052;SDS011;8643;48.824;11.422;2023-05-10T02:09:24;5.78;;;3.72;;
17052;SDS011;8643;48.824;11.422;2023-05-10T02:11:56;4.28;;;3.38;;
17052;SDS011;8643;48.824;11.422;2023-05-10T02:14:27;7.07;;;4.38;;
17052;SDS011;8643;48.824;11.422;2023-05-10T02:16:58;5.72;;;4.38;;
17052;SDS011;8643;48.824;11.422;2023-05-10T02:19:29;6.40;;;3.92;;
17052;SDS011;8643;48.824;11.422;2023-05-10T02:21:59;5.03;;;4.13;;
17052;SDS011;8643;48.824;11.422;2023-05-10T02:24:31;4.72;;;4.07;;
17052;SDS011;8643;48.824;11.422;2023-05-10T02:27:02;5.15;;;4.13;;
17052;SDS011;8643;48.824;11.422;2023-05-10T02:29:32;6.60;;;4.57;;
17052;SDS011;8643;48.824;11.422;2023-05-10T02:32:02;6.82;;;4.80;;
17052;SDS011;8643;48.824;11.422;2023-05-10T02:34:34;5.13;;;4.18;;
17052;SDS011;8643;48.824;11.422;2023-05-10T02:37:03;5.15;;;4.50;;
17052;SDS011;8643;48.824;11.422;2023-05-10T02:39:34;6.28;;;4.45;;
17052;SDS011;8643;48.824;11.422;2023-05-10T02:42:03;6.07;;;4.68;;
17052;SDS011;8643;48.824;11.422;2023-05-10T02:44:33;6.90;;;5.00;;
17052;SDS011;8643;48.824;11.422;2023-05-10T02:47:03;5.72;;;4.80;;
17052;SDS011;8643;48.824;11.422;2023-05-10T02:49:33;6.03;;;4.95;;
17052;SDS011;8643;48.824;11.422;2023-05-10T02:52:04;6.63;;;5.07;;
17052;SDS011;8643;48.824;11.422;2023-05-10T02:54:39;6.00;;;5.07;;
17052;SDS011;8643;48.824;11.422;2023-05-10T02:57:12;5.80;;;4.80;;
17052;SDS011;8643;48.824;11.422;2023-05-10T02:59:45;6.00;;;5.13;;
17052;SDS011;8643;48.824;11.422;2023-05-10T03:02:14;6.47;;;4.88;;
17052;SDS011;8643;48.824;11.422;2023-05-10T03:04:44;6.78;;;4.88;;
17052;SDS011;8643;48.824;11.422;2023-05-10T03:07:13;6.18;;;5.03;;
17052;SDS011;8643;48.824;11.422;2023-05-10T03:09:43;7.20;;;5.68;;
17052;SDS011;8643;48.824;11.422;2023-05-10T03:12:14;9.90;;;5.75;;
17052;SDS011;8643;48.824;11.422;2023-05-10T03:14:52;8.73;;;5.60;;
17052;SDS011;8643;48.824;11.422;2023-05-10T03:17:39;11.73;;;6.05;;
17052;SDS011;8643;48.824;11.422;2023-05-10T03:20:20;9.52;;;6.10;;
17052;SDS011;8643;48.824;11.422;2023-05-10T03:22:53;7.78;;;6.20;;
17052;SDS011;8643;48.824;11.422;2023-05-10T03:25:30;8.93;;;5.90;;
17052;SDS011;8643;48.824;11.422;2023-05-10T03:28:02;9.50;;;6.43;;
17052;SDS011;8643;48.824;11.422;2023-05-10T03:30:33;8.23;;;6.03;;
17052;SDS011;8643;48.824;11.422;2023-05-10T03:33:06;8.10;;;6.10;;
17052;SDS011;8643;48.824;11.422;2023-05-10T03:35:40;8.57;;;5.85;;
17052;SDS011;8643;48.824;11.422;2023-05-10T03:38:10;7.20;;;5.60;;
17052;SDS011;8643;48.824;11.422;2023-05-10T03:40:39;6.82;;;5.75;;
17052;SDS011;8643;48.824;11.422;2023-05-10T03:43:08;7.53;;;4.90;;
17052;SDS011;8643;48.824;11.422;2023-05-10T03:45:37;8.60;;;4.80;;
17052;SDS011;8643;48.824;11.422;2023-05-10T03:48:06;4.78;;;3.70;;
17052;SDS011;8643;48.824;11.422;2023-05-10T03:50:35;5.53;;;2.88;;
17052;SDS011;8643;48.824;11.422;2023-05-10T03:53:05;2.78;;;2.30;;
17052;SDS011;8643;48.824;11.422;2023-05-10T03:55:33;2.15;;;1.63;;
17052;SDS011;8643;48.824;11.422;2023-05-10T03:58:02;3.53;;;1.90;;
17052;SDS011;8643;48.824;11.422;2023-05-10T04:00:32;1.40;;;1.30;;
17052;SDS011;8643;48.824;11.422;2023-05-10T04:03:01;1.58;;;1.27;;
17052;SDS011;8643;48.824;11.422;2023-05-10T04:05:30;2.90;;;1.48;;
17052;SDS011;8643;48.824;11.422;2023-05-10T04:07:59;1.42;;;1.30;;
17052;SDS011;8643;48.824;11.422;2023-05-10T04:10:30;2.60;;;1.50;;
17052;SDS011;8643;48.824;11.422;2023-05-10T04:12:59;1.90;;;1.35;;
17052;SDS011;8643;48.824;11.422;2023-05-10T04:15:28;1.20;;;1.10;;
17052;SDS011;8643;48.824;11.422;2023-05-10T04:17:56;2.40;;;1.30;;
17052;SDS011;8643;48.824;11.422;2023-05-10T04:20:24;2.85;;;1.05;;
17052;SDS011;8643;48.824;11.422;2023-05-10T04:22:53;1.27;;;0.90;;
17052;SDS011;8643;48.824;11.422;2023-05-10T04:25:22;1.77;;;1.00;;
17052;SDS011;8643;48.824;11.422;2023-05-10T04:27:52;1.40;;;1.10;;
17052;SDS011;8643;48.824;11.422;2023-05-10T04:30:20;1.13;;;1.00;;
17052;SDS011;8643;48.824;11.422;2023-05-10T04:32:49;2.08;;;1.10;;
17052;SDS011;8643;48.824;11.422;2023-05-10T04:35:17;1.33;;;0.98;;
17052;SDS011;8643;48.824;11.422;2023-05-10T04:37:46;1.90;;;1.20;;
17052;SDS011;8643;48.824;11.422;2023-05-10T04:40:14;1.30;;;1.00;;
17052;SDS011;8643;48.824;11.422;2023-05-10T04:42:44;3.45;;;1.20;;
17052;SDS011;8643;48.824;11.422;2023-05-10T04:45:14;1.80;;;0.98;;
17052;SDS011;8643;48.824;11.422;2023-05-10T04:47:42;1.35;;;0.90;;
17052;SDS011;8643;48.824;11.422;2023-05-10T04:50:11;1.00;;;0.90;;
17052;SDS011;8643;48.824;11.422;2023-05-10T04:52:40;1.05;;;0.98;;
17052;SDS011;8643;48.824;11.422;2023-05-10T04:55:09;0.95;;;0.85;;
17052;SDS011;8643;48.824;11.422;2023-05-10T04:57:38;2.13;;;0.90;;
17052;SDS011;8643;48.824;11.422;2023-05-10T05:00:07;0.98;;;0.70;;
17052;SDS011;8643;48.824;11.422;2023-05-10T05:02:38;2.58;;;1.40;;
17052;SDS011;8643;48.824;11.422;2023-05-10T05:05:09;1.67;;;0.60;;
17052;SDS011;8643;48.824;11.422;2023-05-10T05:07:38;1.02;;;0.73;;
17052;SDS011;8643;48.824;11.422;2023-05-10T05:10:07;2.75;;;0.80;;
17052;SDS011;8643;48.824;11.422;2023-05-10T05:12:39;1.60;;;0.70;;
17052;SDS011;8643;48.824;11.422;2023-05-10T05:15:08;2.72;;;0.70;;
17052;SDS011;8643;48.824;11.422;2023-05-10T05:17:38;4.20;;;0.73;;
17052;SDS011;8643;48.824;11.422;2023-05-10T05:20:08;0.60;;;0.60;;
17052;SDS011;8643;48.824;11.422;2023-05-10T05:22:37;0.73;;;0.60;;
17052;SDS011;8643;48.824;11.422;2023-05-10T05:25:07;0.90;;;0.65;;
17052;SDS011;8643;48.824;11.422;2023-05-10T05:27:36;1.27;;;0.68;;
17052;SDS011;8643;48.824;11.422;2023-05-10T05:30:05;1.10;;;0.50;;
17052;SDS011;8643;48.824;11.422;2023-05-10T05:32:35;1.60;;;0.57;;
17052;SDS011;8643;48.824;11.422;2023-05-10T05:35:05;2.15;;;0.52;;
17052;SDS011;8643;48.824;11.422;2023-05-10T05:37:35;1.80;;;0.50;;
17052;SDS011;8643;48.824;11.422;2023-05-10T05:40:04;1.35;;;0.50;;
17052;SDS011;8643;48.824;11.422;2023-05-10T05:42:33;1.25;;;0.60;;
17052;SDS011;8643;48.824;11.422;2023-05-10T05:45:03;0.60;;;0.60;;
17052;SDS011;8643;48.824;11.422;2023-05-10T05:47:32;0.60;;;0.60;;
17052;SDS011;8643;48.824;11.422;2023-05-10T05:50:01;2.00;;;0.82;;
17052;SDS011;8643;48.824;11.422;2023-05-10T05:52:32;0.65;;;0.63;;
17052;SDS011;8643;48.824;11.422;2023-05-10T05:55:01;0.95;;;0.70;;
17052;SDS011;8643;48.824;11.422;2023-05-10T05:57:30;0.85;;;0.80;;
17052;SDS011;8643;48.824;11.422;2023-05-10T05:59:58;1.40;;;0.88;;
17052;SDS011;8643;48.824;11.422;2023-05-10T06:02:26;2.28;;;1.02;;
17052;SDS011;8643;48.824;11.422;2023-05-10T06:04:55;1.20;;;1.10;;
17052;SDS011;8643;48.824;11.422;2023-05-10T06:07:24;1.25;;;1.13;;
17052;SDS011;8643;48.824;11.422;2023-05-10T06:09:54;2.65;;;1.00;;
17052;SDS011;8643;48.824;11.422;2023-05-10T06:12:23;1.23;;;1.13;;
17052;SDS011;8643;48.824;11.422;2023-05-10T06:14:52;2.20;;;1.00;;
17052;SDS011;8643;48.824;11.422;2023-05-10T06:17:20;1.20;;;1.10;;
17052;SDS011;8643;48.824;11.422;2023-05-10T06:19:50;2.60;;;1.08;;
17052;SDS011;8643;48.824;11.422;2023-05-10T06:22:19;1.63;;;1.10;;
17052;SDS011;8643;48.824;11.422;2023-05-10T06:24:49;1.50;;;1.20;;
17052;SDS011;8643;48.824;11.422;2023-05-10T06:27:19;1.33;;;1.23;;
17052;SDS011;8643;48.824;11.422;2023-05-10T06:29:48;1.40;;;1.17;;
17052;SDS011;8643;48.824;11.422;2023-05-10T06:32:24;1.85;;;1.30;;
17052;SDS011;8643;48.824;11.422;2023-05-10T06:34:53;1.55;;;1.20;;
17052;SDS011;8643;48.824;11.422;2023-05-10T06:37:22;1.33;;;1.23;;
17052;SDS011;8643;48.824;11.422;2023-05-10T06:39:50;3.38;;;1.45;;
17052;SDS011;8643;48.824;11.422;2023-05-10T06:42:20;1.48;;;1.35;;
17052;SDS011;8643;48.824;11.422;2023-05-10T06:44:51;1.63;;;1.30;;
17052;SDS011;8643;48.824;11.422;2023-05-10T06:47:21;1.60;;;1.00;;
17052;SDS011;8643;48.824;11.422;2023-05-10T06:49:50;1.38;;;1.08;;
17052;SDS011;8643;48.824;11.422;2023-05-10T06:52:18;1.40;;;1.20;;
17052;SDS011;8643;48.824;11.422;2023-05-10T06:54:47;1.65;;;1.20;;
17052;SDS011;8643;48.824;11.422;2023-05-10T06:57:16;1.10;;;1.00;;
17052;SDS011;8643;48.824;11.422;2023-05-10T06:59:58;1.55;;;1.08;;
17052;SDS011;8643;48.824;11.422;2023-05-10T07:02:27;1.05;;;0.90;;
17052;SDS011;8643;48.824;11.422;2023-05-10T07:04:57;1.75;;;1.10;;
17052;SDS011;8643;48.824;11.422;2023-05-10T07:07:28;1.35;;;1.08;;
17052;SDS011;8643;48.824;11.422;2023-05-10T07:09:57;1.08;;;0.85;;
17052;SDS011;8643;48.824;11.422;2023-05-10T07:12:26;0.98;;;0.88;;
17052;SDS011;8643;48.824;11.422;2023-05-10T07:14:56;1.25;;;0.80;;
17052;SDS011;8643;48.824;11.422;2023-05-10T07:17:26;1.63;;;1.02;;
17052;SDS011;8643;48.824;11.422;2023-05-10T07:19:54;1.40;;;0.90;;
17052;SDS011;8643;48.824;11.422;2023-05-10T07:22:23;1.40;;;0.80;;
17052;SDS011;8643;48.824;11.422;2023-05-10T07:24:52;1.25;;;0.90;;
17052;SDS011;8643;48.824;11.422;2023-05-10T07:27:21;2.28;;;0.95;;
17052;SDS011;8643;48.824;11.422;2023-05-10T07:29:50;2.78;;;0.90;;
17052;SDS011;8643;48.824;11.422;2023-05-10T07:32:19;1.67;;;0.95;;
17052;SDS011;8643;48.824;11.422;2023-05-10T07:34:49;1.77;;;1.30;;
17052;SDS011;8643;48.824;11.422;2023-05-10T07:37:18;1.45;;;1.13;;
17052;SDS011;8643;48.824;11.422;2023-05-10T07:39:46;3.88;;;1.40;;
17052;SDS011;8643;48.824;11.422;2023-05-10T07:42:15;3.60;;;1.38;;
17052;SDS011;8643;48.824;11.422;2023-05-10T07:44:44;2.45;;;1.40;;
17052;SDS011;8643;48.824;11.422;2023-05-10T07:47:13;1.80;;;1.40;;
17052;SDS011;8643;48.824;11.422;2023-05-10T07:49:42;2.15;;;1.40;;
17052;SDS011;8643;48.824;11.422;2023-05-10T07:52:12;1.60;;;1.10;;
17052;SDS011;8643;48.824;11.422;2023-05-10T07:54:41;2.72;;;1.23;;
17052;SDS011;8643;48.824;11.422;2023-05-10T07:57:10;5.00;;;1.40;;
17052;SDS011;8643;48.824;11.422;2023-05-10T07:59:40;1.42;;;1.30;;
17052;SDS011;8643;48.824;11.422;2023-05-10T08:02:10;1.17;;;0.90;;
17052;SDS011;8643;48.824;11.422;2023-05-10T08:04:39;1.73;;;1.30;;
17052;SDS011;8643;48.824;11.422;2023-05-10T08:07:07;1.42;;;1.10;;
17052;SDS011;8643;48.824;11.422;2023-05-10T08:09:38;3.75;;;1.10;;
17052;SDS011;8643;48.824;11.422;2023-05-10T08:12:07;2.03;;;0.90;;
17052;SDS011;8643;48.824;11.422;2023-05-10T08:14:35;1.10;;;1.00;;
17052;SDS011;8643;48.824;11.422;2023-05-10T08:17:04;1.70;;;1.00;;
17052;SDS011;8643;48.824;11.422;2023-05-10T08:19:33;1.25;;;1.10;;
17052;SDS011;8643;48.824;11.422;2023-05-10T08:22:02;2.25;;;1.25;;
17052;SDS011;8643;48.824;11.422;2023-05-10T08:24:31;1.67;;;1.00;;
17052;SDS011;8643;48.824;11.422;2023-05-10T08:27:02;2.85;;;1.15;;
17052;SDS011;8643;48.824;11.422;2023-05-10T08:29:31;1.92;;;1.10;;
17052;SDS011;8643;48.824;11.422;2023-05-10T08:32:15;1.88;;;1.27;;
17052;SDS011;8643;48.824;11.422;2023-05-10T08:34:44;1.40;;;1.30;;
17052;SDS011;8643;48.824;11.422;2023-05-10T08:37:12;1.40;;;1.20;;
17052;SDS011;8643;48.824;11.422;2023-05-10T08:39:41;2.53;;;1.40;;
17052;SDS011;8643;48.824;11.422;2023-05-10T08:42:12;2.05;;;1.20;;
17052;SDS011;8643;48.824;11.422;2023-05-10T08:44:46;4.18;;;1.20;;
17052;SDS011;8643;48.824;11.422;2023-05-10T08:47:16;2.80;;;1.40;;
17052;SDS011;8643;48.824;11.422;2023-05-10T08:49:47;3.50;;;1.23;;
17052;SDS011;8643;48.824;11.422;2023-05-10T08:52:20;1.52;;;0.90;;
17052;SDS011;8643;48.824;11.422;2023-05-10T08:54:52;1.00;;;0.90;;
17052;SDS011;8643;48.824;11.422;2023-05-10T08:57:22;1.73;;;1.02;;
17052;SDS011;8643;48.824;11.422;2023-05-10T08:59:51;1.08;;;0.98;;
17052;SDS011;8643;48.824;11.422;2023-05-10T09:02:19;1.98;;;0.80;;
17052;SDS011;8643;48.824;11.422;2023-05-10T09:04:50;1.05;;;0.93;;
17052;SDS011;8643;48.824;11.422;2023-05-10T09:07:19;0.90;;;0.90;;
17052;SDS011;8643;48.824;11.422;2023-05-10T09:09:48;2.45;;;1.45;;
17052;SDS011;8643;48.824;11.422;2023-05-10T09:12:17;1.20;;;0.90;;
17052;SDS011;8643;48.824;11.422;2023-05-10T09:14:48;1.38;;;0.90;;
17052;SDS011;8643;48.824;11.422;2023-05-10T09:17:19;1.45;;;0.85;;
17052;SDS011;8643;48.824;11.422;2023-05-10T09:19:56;1.00;;;0.80;;
17052;SDS011;8643;48.824;11.422;2023-05-10T09:22:28;1.58;;;0.93;;
17052;SDS011;8643;48.824;11.422;2023-05-10T09:25:04;1.10;;;0.90;;
17052;SDS011;8643;48.824;11.422;2023-05-10T09:27:38;1.10;;;0.88;;
17052;SDS011;8643;48.824;11.422;2023-05-10T09:30:10;1.75;;;0.82;;
17052;SDS011;8643;48.824;11.422;2023-05-10T09:32:45;1.40;;;0.90;;
17052;SDS011;8643;48.824;11.422;2023-05-10T09:35:15;1.27;;;0.90;;
17052;SDS011;8643;48.824;11.422;2023-05-10T09:37:46;0.85;;;0.80;;
17052;SDS011;8643;48.824;11.422;2023-05-10T09:40:16;2.75;;;1.00;;
17052;SDS011;8643;48.824;11.422;2023-05-10T09:42:50;1.70;;;1.10;;
17052;SDS011;8643;48.824;11.422;2023-05-10T09:45:22;2.17;;;0.93;;
17052;SDS011;8643;48.824;11.422;2023-05-10T09:47:53;1.98;;;1.05;;
17052;SDS011;8643;48.824;11.422;2023-05-10T09:50:23;1.35;;;1.02;;
17052;SDS011;8643;48.824;11.422;2023-05-10T09:52:53;3.45;;;1.00;;
17052;SDS011;8643;48.824;11.422;2023-05-10T09:55:25;1.73;;;1.10;;
17052;SDS011;8643;48.824;11.422;2023-05-10T09:58:06;0.90;;;0.80;;
17052;SDS011;8643;48.824;11.422;2023-05-10T10:00:39;2.10;;;1.02;;
17052;SDS011;8643;48.824;11.422;2023-05-10T10:03:12;1.95;;;1.00;;
17052;SDS011;8643;48.824;11.422;2023-05-10T10:05:42;1.67;;;0.90;;
17052;SDS011;8643;48.824;11.422;2023-05-10T10:08:12;1.92;;;0.90;;
17052;SDS011;8643;48.824;11.422;2023-05-10T10:10:41;1.55;;;0.80;;
17052;SDS011;8643;48.824;11.422;2023-05-10T10:13:13;1.15;;;0.77;;
17052;SDS011;8643;48.824;11.422;2023-05-10T10:15:43;2.83;;;0.95;;
17052;SDS011;8643;48.824;11.422;2023-05-10T10:18:13;1.65;;;0.95;;
17052;SDS011;8643;48.824;11.422;2023-05-10T10:20:42;1.95;;;0.77;;
17052;SDS011;8643;48.824;11.422;2023-05-10T10:23:12;1.17;;;1.00;;
17052;SDS011;8643;48.824;11.422;2023-05-10T10:25:43;1.67;;;0.98;;
17052;SDS011;8643;48.824;11.422;2023-05-10T10:28:16;1.50;;;0.70;;
17052;SDS011;8643;48.824;11.422;2023-05-10T10:30:55;4.65;;;0.90;;
17052;SDS011;8643;48.824;11.422;2023-05-10T10:33:40;1.08;;;0.98;;
17052;SDS011;8643;48.824;11.422;2023-05-10T10:36:23;1.10;;;0.90;;
17052;SDS011;8643;48.824;11.422;2023-05-10T10:39:00;1.95;;;1.05;;
17052;SDS011;8643;48.824;11.422;2023-05-10T10:41:31;1.90;;;0.80;;
17052;SDS011;8643;48.824;11.422;2023-05-10T10:47:01;2.10;;;0.60;;
17052;SDS011;8643;48.824;11.422;2023-05-10T10:49:38;1.20;;;0.70;;
17052;SDS011;8643;48.824;11.422;2023-05-10T10:52:17;1.10;;;0.75;;
17052;SDS011;8643;48.824;11.422;2023-05-10T10:54:58;1.65;;;0.80;;
17052;SDS011;8643;48.824;11.422;2023-05-10T10:57:31;4.53;;;0.90;;
17052;SDS011;8643;48.824;11.422;2023-05-10T11:00:23;3.83;;;0.90;;
17052;SDS011;8643;48.824;11.422;2023-05-10T11:05:41;3.58;;;1.10;;
17052;SDS011;8643;48.824;11.422;2023-05-10T11:08:17;1.67;;;1.00;;
17052;SDS011;8643;48.824;11.422;2023-05-10T11:11:02;1.50;;;0.88;;
17052;SDS011;8643;48.824;11.422;2023-05-10T11:13:34;1.63;;;0.90;;
17052;SDS011;8643;48.824;11.422;2023-05-10T11:16:10;2.00;;;0.90;;
17052;SDS011;8643;48.824;11.422;2023-05-10T11:18:54;2.45;;;0.90;;
17052;SDS011;8643;48.824;11.422;2023-05-10T11:21:30;2.17;;;0.90;;
17052;SDS011;8643;48.824;11.422;2023-05-10T11:24:00;1.73;;;0.80;;
17052;SDS011;8643;48.824;11.422;2023-05-10T11:26:33;1.52;;;0.90;;
17052;SDS011;8643;48.824;11.422;2023-05-10T11:29:03;1.50;;;0.93;;
17052;SDS011;8643;48.824;11.422;2023-05-10T11:31:32;1.25;;;0.70;;
17052;SDS011;8643;48.824;11.422;2023-05-10T11:34:01;1.80;;;1.00;;
17052;SDS011;8643;48.824;11.422;2023-05-10T11:36:33;1.40;;;0.77;;
17052;SDS011;8643;48.824;11.422;2023-05-10T11:39:03;1.60;;;0.93;;
17052;SDS011;8643;48.824;11.422;2023-05-10T11:41:33;3.83;;;0.90;;
17052;SDS011;8643;48.824;11.422;2023-05-10T11:44:01;6.00;;;1.30;;
17052;SDS011;8643;48.824;11.422;2023-05-10T11:46:30;4.28;;;1.10;;
17052;SDS011;8643;48.824;11.422;2023-05-10T11:48:59;2.17;;;1.30;;
17052;SDS011;8643;48.824;11.422;2023-05-10T11:51:34;2.78;;;1.30;;
17052;SDS011;8643;48.824;11.422;2023-05-10T11:54:05;1.80;;;1.30;;
17052;SDS011;8643;48.824;11.422;2023-05-10T11:56:35;2.28;;;1.25;;
17052;SDS011;8643;48.824;11.422;2023-05-10T11:59:04;3.17;;;1.38;;
17052;SDS011;8643;48.824;11.422;2023-05-10T12:01:34;5.43;;;1.17;;
17052;SDS011;8643;48.824;11.422;2023-05-10T12:04:03;4.70;;;1.30;;
17052;SDS011;8643;48.824;11.422;2023-05-10T12:06:37;2.72;;;1.30;;
17052;SDS011;8643;48.824;11.422;2023-05-10T12:09:08;1.85;;;1.48;;
17052;SDS011;8643;48.824;11.422;2023-05-10T12:11:38;3.22;;;1.70;;
17052;SDS011;8643;48.824;11.422;2023-05-10T12:14:10;1.55;;;1.00;;
17052;SDS011;8643;48.824;11.422;2023-05-10T12:16:38;2.13;;;1.38;;
17052;SDS011;8643;48.824;11.422;2023-05-10T12:19:07;1.70;;;1.20;;
17052;SDS011;8643;48.824;11.422;2023-05-10T12:21:38;2.28;;;1.17;;
17052;SDS011;8643;48.824;11.422;2023-05-10T12:24:07;1.27;;;0.95;;
17052;SDS011;8643;48.824;11.422;2023-05-10T12:26:36;1.73;;;1.25;;
17052;SDS011;8643;48.824;11.422;2023-05-10T12:29:11;3.28;;;1.15;;
17052;SDS011;8643;48.824;11.422;2023-05-10T12:31:52;2.50;;;1.13;;
17052;SDS011;8643;48.824;11.422;2023-05-10T12:34:23;4.10;;;1.10;;
17052;SDS011;8643;48.824;11.422;2023-05-10T12:37:00;3.03;;;0.90;;
17052;SDS011;8643;48.824;11.422;2023-05-10T12:39:40;2.65;;;0.90;;
17052;SDS011;8643;48.824;11.422;2023-05-10T12:42:10;3.45;;;1.10;;
17052;SDS011;8643;48.824;11.422;2023-05-10T12:44:39;1.50;;;1.00;;
17052;SDS011;8643;48.824;11.422;2023-05-10T12:47:07;2.20;;;1.10;;
17052;SDS011;8643;48.824;11.422;2023-05-10T12:49:37;1.10;;;0.90;;
17052;SDS011;8643;48.824;11.422;2023-05-10T12:52:07;3.15;;;0.80;;
17052;SDS011;8643;48.824;11.422;2023-05-10T12:54:35;1.67;;;0.90;;
17052;SDS011;8643;48.824;11.422;2023-05-10T12:57:04;1.00;;;0.90;;
17052;SDS011;8643;48.824;11.422;2023-05-10T12:59:32;4.20;;;1.67;;
17052;SDS011;8643;48.824;11.422;2023-05-10T13:02:03;4.60;;;1.80;;
17052;SDS011;8643;48.824;11.422;2023-05-10T13:04:32;9.77;;;1.90;;
17052;SDS011;8643;48.824;11.422;2023-05-10T13:07:01;3.63;;;1.77;;
17052;SDS011;8643;48.824;11.422;2023-05-10T13:09:32;8.55;;;1.70;;
17052;SDS011;8643;48.824;11.422;2023-05-10T13:12:01;6.95;;;2.20;;
17052;SDS011;8643;48.824;11.422;2023-05-10T13:14:29;6.03;;;2.33;;
17052;SDS011;8643;48.824;11.422;2023-05-10T13:16:58;3.17;;;1.73;;
17052;SDS011;8643;48.824;11.422;2023-05-10T13:19:27;4.82;;;2.15;;
17052;SDS011;8643;48.824;11.422;2023-05-10T13:21:56;3.90;;;2.40;;
17052;SDS011;8643;48.824;11.422;2023-05-10T13:24:25;8.80;;;2.40;;
17052;SDS011;8643;48.824;11.422;2023-05-10T13:26:55;2.60;;;1.70;;
17052;SDS011;8643;48.824;11.422;2023-05-10T13:29:24;2.50;;;1.60;;
17052;SDS011;8643;48.824;11.422;2023-05-10T13:31:52;2.75;;;1.50;;
17052;SDS011;8643;48.824;11.422;2023-05-10T13:34:21;2.10;;;1.83;;
17052;SDS011;8643;48.824;11.422;2023-05-10T13:36:50;2.38;;;1.38;;
17052;SDS011;8643;48.824;11.422;2023-05-10T13:39:20;2.00;;;1.67;;
17052;SDS011;8643;48.824;11.422;2023-05-10T13:41:48;3.42;;;1.52;;
17052;SDS011;8643;48.824;11.422;2023-05-10T13:44:20;2.35;;;2.05;;
17052;SDS011;8643;48.824;11.422;2023-05-10T13:46:48;3.22;;;1.80;;
17052;SDS011;8643;48.824;11.422;2023-05-10T13:49:17;2.53;;;1.80;;
17052;SDS011;8643;48.824;11.422;2023-05-10T13:51:46;3.42;;;1.70;;
17052;SDS011;8643;48.824;11.422;2023-05-10T13:54:14;2.22;;;1.77;;
17052;SDS011;8643;48.824;11.422;2023-05-10T13:56:46;1.98;;;1.50;;
17052;SDS011;8643;48.824;11.422;2023-05-10T13:59:14;3.00;;;2.05;;
17052;SDS011;8643;48.824;11.422;2023-05-10T14:01:45;3.92;;;1.95;;
17052;SDS011;8643;48.824;11.422;2023-05-10T14:04:13;4.00;;;2.17;;
17052;SDS011;8643;48.824;11.422;2023-05-10T14:06:42;2.88;;;1.92;;
17052;SDS011;8643;48.824;11.422;2023-05-10T14:09:11;2.72;;;1.70;;
17052;SDS011;8643;48.824;11.422;2023-05-10T14:11:39;3.22;;;2.20;;
17052;SDS011;8643;48.824;11.422;2023-05-10T14:14:09;3.88;;;2.50;;
17052;SDS011;8643;48.824;11.422;2023-05-10T14:16:40;4.20;;;2.60;;
17052;SDS011;8643;48.824;11.422;2023-05-10T14:19:11;1.50;;;1.20;;
17052;SDS011;8643;48.824;11.422;2023-05-10T14:21:40;2.50;;;1.35;;
17052;SDS011;8643;48.824;11.422;2023-05-10T14:24:09;1.73;;;1.52;;
17052;SDS011;8643;48.824;11.422;2023-05-10T14:26:38;3.53;;;1.80;;
17052;SDS011;8643;48.824;11.422;2023-05-10T14:29:07;1.60;;;1.50;;
17052;SDS011;8643;48.824;11.422;2023-05-10T14:31:38;2.90;;;1.80;;
17052;SDS011;8643;48.824;11.422;2023-05-10T14:34:07;2.83;;;1.73;;
17052;SDS011;8643;48.824;11.422;2023-05-10T14:36:37;2.45;;;1.80;;
17052;SDS011;8643;48.824;11.422;2023-05-10T14:39:06;3.03;;;2.00;;
17052;SDS011;8643;48.824;11.422;2023-05-10T14:41:36;4.60;;;2.30;;
17052;SDS011;8643;48.824;11.422;2023-05-10T14:44:07;2.30;;;1.75;;
17052;SDS011;8643;48.824;11.422;2023-05-10T14:46:36;1.95;;;1.50;;
17052;SDS011;8643;48.824;11.422;2023-05-10T14:49:04;3.78;;;1.40;;
17052;SDS011;8643;48.824;11.422;2023-05-10T14:51:33;1.92;;;1.50;;
17052;SDS011;8643;48.824;11.422;2023-05-10T14:54:04;2.30;;;1.50;;
17052;SDS011;8643;48.824;11.422;2023-05-10T14:56:32;3.50;;;1.65;;
17052;SDS011;8643;48.824;11.422;2023-05-10T14:59:01;2.00;;;1.50;;
17052;SDS011;8643;48.824;11.422;2023-05-10T15:01:30;1.77;;;1.20;;
17052;SDS011;8643;48.824;11.422;2023-05-10T15:03:59;1.40;;;1.15;;
17052;SDS011;8643;48.824;11.422;2023-05-10T15:06:32;2.53;;;1.40;;
17052;SDS011;8643;48.824;11.422;2023-05-10T15:09:02;2.10;;;1.40;;
17052;SDS011;8643;48.824;11.422;2023-05-10T15:11:32;2.63;;;1.38;;
17052;SDS011;8643;48.824;11.422;2023-05-10T15:14:00;3.03;;;1.25;;
17052;SDS011;8643;48.824;11.422;2023-05-10T15:16:29;4.40;;;1.38;;